CheckWX is a tool to help pilots better visualize weather data.  It is not intended as a substitute for an official pre-flight weather briefing.

03:31:56 UTC

PAGK TAF
Gulkana Airport
Gulkana, Alaska, USA
PAGK 250521Z 2506/2606 16015G25KT P6SM SCT060 BKN100 FM251200 17011KT 6SM -RA BR OVC025

May-25@
06:00 UTC

May-25 @ 06:00 UTC

May-25@
12:00 UTC

May-25 @ 12:00 UTC

TAF PAGK 250521Z 2506/2606 16015G25KT P6SM SCT060 BKN100

Expired

Wind
  • 160° at 15 KTS
  • {Gusting to 25 KTS
Cloud Levels
  • Scattered at 6,000' AGL
  • Broken at 10,000' AGL

May-25@
12:00 UTC

May-25 @ 12:00 UTC

May-26@
06:00 UTC

May-26 @ 06:00 UTC

FM251200 17011KT 6SM -RA BR OVC025

From

From Standard forecast or significant change

Wind
  • 170° at 11 KTS
Conditions
Light Rain, Mist
Cloud Levels
  • Overcast at 2,500' AGL